sensor_id;sensor_type;location;lat;lon;timestamp;temperature;humidity
37086;DHT22;23001;45.952;12.676;2023-06-14T00:01:41;19.90;99.90
37086;DHT22;23001;45.952;12.676;2023-06-14T00:04:06;19.80;99.90
37086;DHT22;23001;45.952;12.676;2023-06-14T00:06:34;19.80;99.90
37086;DHT22;23001;45.952;12.676;2023-06-14T00:08:59;19.80;99.90
37086;DHT22;23001;45.952;12.676;2023-06-14T00:11:25;19.60;99.90
37086;DHT22;23001;45.952;12.676;2023-06-14T00:13:52;19.60;99.90
37086;DHT22;23001;45.952;12.676;2023-06-14T00:16:17;19.50;99.90
37086;DHT22;23001;45.952;12.676;2023-06-14T00:18:44;19.60;99.90
37086;DHT22;23001;45.952;12.676;2023-06-14T00:21:11;19.60;99.90
37086;DHT22;23001;45.952;12.676;2023-06-14T00:23:37;19.70;99.90
37086;DHT22;23001;45.952;12.676;2023-06-14T00:26:03;19.60;99.90
37086;DHT22;23001;45.952;12.676;2023-06-14T00:28:29;19.60;99.90
37086;DHT22;23001;45.952;12.676;2023-06-14T00:30:54;19.50;99.90
37086;DHT22;23001;45.952;12.676;2023-06-14T00:33:20;19.60;99.90
37086;DHT22;23001;45.952;12.676;2023-06-14T00:35:46;19.60;99.90
37086;DHT22;23001;45.952;12.676;2023-06-14T00:38:12;19.50;99.90
37086;DHT22;23001;45.952;12.676;2023-06-14T00:40:38;19.40;99.90
37086;DHT22;23001;45.952;12.676;2023-06-14T00:43:03;19.40;99.90
37086;DHT22;23001;45.952;12.676;2023-06-14T00:45:29;19.30;99.90
37086;DHT22;23001;45.952;12.676;2023-06-14T00:47:56;19.40;99.90
37086;DHT22;23001;45.952;12.676;2023-06-14T00:50:23;19.40;99.90
37086;DHT22;23001;45.952;12.676;2023-06-14T00:52:49;19.30;99.90
37086;DHT22;23001;45.952;12.676;2023-06-14T00:55:15;19.20;99.90
37086;DHT22;23001;45.952;12.676;2023-06-14T00:57:41;19.20;99.90
37086;DHT22;23001;45.952;12.676;2023-06-14T01:00:07;19.10;99.90
37086;DHT22;23001;45.952;12.676;2023-06-14T01:02:38;19.10;99.90
37086;DHT22;23001;45.952;12.676;2023-06-14T01:05:04;19.10;99.90
37086;DHT22;23001;45.952;12.676;2023-06-14T01:15:16;19.00;99.90
37086;DHT22;23001;45.952;12.676;2023-06-14T01:17:42;18.90;99.90
37086;DHT22;23001;45.952;12.676;2023-06-14T01:20:13;19.10;99.90
37086;DHT22;23001;45.952;12.676;2023-06-14T01:22:52;19.10;99.90
37086;DHT22;23001;45.952;12.676;2023-06-14T01:25:20;19.00;99.90
37086;DHT22;23001;45.952;12.676;2023-06-14T01:27:52;18.90;99.90
37086;DHT22;23001;45.952;12.676;2023-06-14T01:30:18;18.90;99.90
37086;DHT22;23001;45.952;12.676;2023-06-14T01:32:45;18.90;99.90
37086;DHT22;23001;45.952;12.676;2023-06-14T01:35:14;18.90;99.90
37086;DHT22;23001;45.952;12.676;2023-06-14T01:37:40;18.90;99.90
37086;DHT22;23001;45.952;12.676;2023-06-14T01:40:06;18.90;99.90
37086;DHT22;23001;45.952;12.676;2023-06-14T01:42:36;18.90;99.90
37086;DHT22;23001;45.952;12.676;2023-06-14T01:45:02;18.90;99.90
37086;DHT22;23001;45.952;12.676;2023-06-14T01:47:33;18.90;99.90
37086;DHT22;23001;45.952;12.676;2023-06-14T01:50:00;18.80;99.90
37086;DHT22;23001;45.952;12.676;2023-06-14T01:52:25;18.80;99.90
37086;DHT22;23001;45.952;12.676;2023-06-14T01:54:51;18.80;99.90
37086;DHT22;23001;45.952;12.676;2023-06-14T01:57:16;18.70;99.90
37086;DHT22;23001;45.952;12.676;2023-06-14T01:59:42;18.70;99.90
37086;DHT22;23001;45.952;12.676;2023-06-14T02:02:07;18.70;99.90
37086;DHT22;23001;45.952;12.676;2023-06-14T02:04:33;18.70;99.90
37086;DHT22;23001;45.952;12.676;2023-06-14T02:06:59;18.70;99.90
37086;DHT22;23001;45.952;12.676;2023-06-14T02:09:24;18.70;99.90
37086;DHT22;23001;45.952;12.676;2023-06-14T02:11:50;18.70;99.90
37086;DHT22;23001;45.952;12.676;2023-06-14T02:14:16;18.60;99.90
37086;DHT22;23001;45.952;12.676;2023-06-14T02:16:42;18.60;99.90
37086;DHT22;23001;45.952;12.676;2023-06-14T02:19:16;18.60;99.90
37086;DHT22;23001;45.952;12.676;2023-06-14T02:21:42;18.60;99.90
37086;DHT22;23001;45.952;12.676;2023-06-14T02:24:07;18.60;99.90
37086;DHT22;23001;45.952;12.676;2023-06-14T02:26:33;18.50;99.90
37086;DHT22;23001;45.952;12.676;2023-06-14T02:28:59;18.50;99.90
37086;DHT22;23001;45.952;12.676;2023-06-14T02:31:25;18.50;99.90
37086;DHT22;23001;45.952;12.676;2023-06-14T02:33:50;18.50;99.90
37086;DHT22;23001;45.952;12.676;2023-06-14T02:36:16;18.40;99.90
37086;DHT22;23001;45.952;12.676;2023-06-14T02:38:42;18.40;99.90
37086;DHT22;23001;45.952;12.676;2023-06-14T02:41:08;18.40;99.90
37086;DHT22;23001;45.952;12.676;2023-06-14T02:43:33;18.40;99.90
37086;DHT22;23001;45.952;12.676;2023-06-14T02:45:59;18.40;99.90
37086;DHT22;23001;45.952;12.676;2023-06-14T02:48:25;18.50;99.90
37086;DHT22;23001;45.952;12.676;2023-06-14T02:50:50;18.50;99.90
37086;DHT22;23001;45.952;12.676;2023-06-14T02:53:16;18.40;99.90
37086;DHT22;23001;45.952;12.676;2023-06-14T02:55:42;18.30;99.90
37086;DHT22;23001;45.952;12.676;2023-06-14T02:58:08;18.30;99.90
37086;DHT22;23001;45.952;12.676;2023-06-14T03:00:33;18.40;99.90
37086;DHT22;23001;45.952;12.676;2023-06-14T03:03:00;18.30;99.90
37086;DHT22;23001;45.952;12.676;2023-06-14T03:05:27;18.40;99.90
37086;DHT22;23001;45.952;12.676;2023-06-14T03:07:53;18.30;99.90
37086;DHT22;23001;45.952;12.676;2023-06-14T03:10:19;18.30;99.90
37086;DHT22;23001;45.952;12.676;2023-06-14T03:12:45;18.20;99.90
37086;DHT22;23001;45.952;12.676;2023-06-14T03:15:13;18.30;99.90
37086;DHT22;23001;45.952;12.676;2023-06-14T03:17:41;18.40;99.90
37086;DHT22;23001;45.952;12.676;2023-06-14T03:20:10;18.50;99.90
37086;DHT22;23001;45.952;12.676;2023-06-14T03:22:36;18.50;99.90
37086;DHT22;23001;45.952;12.676;2023-06-14T03:25:07;18.40;99.90
37086;DHT22;23001;45.952;12.676;2023-06-14T03:27:34;18.30;99.90
37086;DHT22;23001;45.952;12.676;2023-06-14T03:30:00;18.30;99.90
37086;DHT22;23001;45.952;12.676;2023-06-14T03:32:30;18.30;99.90
37086;DHT22;23001;45.952;12.676;2023-06-14T03:35:01;18.20;99.90
37086;DHT22;23001;45.952;12.676;2023-06-14T03:37:27;18.20;99.90
37086;DHT22;23001;45.952;12.676;2023-06-14T03:39:52;18.30;99.90
37086;DHT22;23001;45.952;12.676;2023-06-14T03:42:18;18.30;99.90
37086;DHT22;23001;45.952;12.676;2023-06-14T03:44:43;18.40;99.90
37086;DHT22;23001;45.952;12.676;2023-06-14T03:47:09;18.40;99.90
37086;DHT22;23001;45.952;12.676;2023-06-14T03:49:35;18.30;99.90
37086;DHT22;23001;45.952;12.676;2023-06-14T03:52:01;18.30;99.90
37086;DHT22;23001;45.952;12.676;2023-06-14T03:54:27;18.50;99.90
37086;DHT22;23001;45.952;12.676;2023-06-14T03:56:56;18.50;99.90
37086;DHT22;23001;45.952;12.676;2023-06-14T03:59:22;18.50;99.90
37086;DHT22;23001;45.952;12.676;2023-06-14T04:01:48;18.50;99.90
37086;DHT22;23001;45.952;12.676;2023-06-14T04:04:14;18.60;99.90
37086;DHT22;23001;45.952;12.676;2023-06-14T04:06:42;18.60;99.90
37086;DHT22;23001;45.952;12.676;2023-06-14T04:09:13;18.60;99.90
37086;DHT22;23001;45.952;12.676;2023-06-14T04:11:39;18.70;99.90
37086;DHT22;23001;45.952;12.676;2023-06-14T04:14:05;18.70;99.90
37086;DHT22;23001;45.952;12.676;2023-06-14T04:16:31;18.80;99.90
37086;DHT22;23001;45.952;12.676;2023-06-14T04:18:56;18.90;99.90
37086;DHT22;23001;45.952;12.676;2023-06-14T04:21:23;18.80;99.90
37086;DHT22;23001;45.952;12.676;2023-06-14T04:23:49;18.90;99.90
37086;DHT22;23001;45.952;12.676;2023-06-14T04:26:18;18.80;99.90
37086;DHT22;23001;45.952;12.676;2023-06-14T04:28:45;18.90;99.90
37086;DHT22;23001;45.952;12.676;2023-06-14T04:31:12;19.00;99.90
37086;DHT22;23001;45.952;12.676;2023-06-14T04:33:38;19.00;99.90
37086;DHT22;23001;45.952;12.676;2023-06-14T04:36:15;18.90;99.90
37086;DHT22;23001;45.952;12.676;2023-06-14T04:38:45;19.00;99.90
37086;DHT22;23001;45.952;12.676;2023-06-14T04:41:11;19.00;99.90
37086;DHT22;23001;45.952;12.676;2023-06-14T04:43:37;19.20;99.90
37086;DHT22;23001;45.952;12.676;2023-06-14T04:46:06;19.30;99.90
37086;DHT22;23001;45.952;12.676;2023-06-14T04:48:39;19.20;99.90
37086;DHT22;23001;45.952;12.676;2023-06-14T04:51:07;19.20;99.90
37086;DHT22;23001;45.952;12.676;2023-06-14T04:53:35;19.20;99.90
37086;DHT22;23001;45.952;12.676;2023-06-14T04:56:03;19.30;99.90
37086;DHT22;23001;45.952;12.676;2023-06-14T04:58:29;19.20;99.90
37086;DHT22;23001;45.952;12.676;2023-06-14T05:00:57;19.20;99.90
37086;DHT22;23001;45.952;12.676;2023-06-14T05:03:24;19.20;99.90
37086;DHT22;23001;45.952;12.676;2023-06-14T05:05:55;19.30;99.90
37086;DHT22;23001;45.952;12.676;2023-06-14T05:08:21;19.40;99.90
37086;DHT22;23001;45.952;12.676;2023-06-14T05:10:49;19.50;99.90
37086;DHT22;23001;45.952;12.676;2023-06-14T05:13:19;19.60;99.90
37086;DHT22;23001;45.952;12.676;2023-06-14T05:15:57;19.60;99.90
37086;DHT22;23001;45.952;12.676;2023-06-14T05:18:45;19.60;99.90
37086;DHT22;23001;45.952;12.676;2023-06-14T06:06:17;23.40;99.90
37086;DHT22;23001;45.952;12.676;2023-06-14T06:08:43;22.30;99.90
37086;DHT22;23001;45.952;12.676;2023-06-14T06:11:08;21.70;99.90
37086;DHT22;23001;45.952;12.676;2023-06-14T06:13:34;21.20;99.90
37086;DHT22;23001;45.952;12.676;2023-06-14T06:16:11;21.10;99.90
37086;DHT22;23001;45.952;12.676;2023-06-14T06:18:37;21.00;99.90
37086;DHT22;23001;45.952;12.676;2023-06-14T06:21:04;21.00;99.90
37086;DHT22;23001;45.952;12.676;2023-06-14T06:23:29;20.90;99.90
37086;DHT22;23001;45.952;12.676;2023-06-14T06:25:55;20.90;99.90
37086;DHT22;23001;45.952;12.676;2023-06-14T06:28:20;21.00;99.90
37086;DHT22;23001;45.952;12.676;2023-06-14T06:30:46;21.40;99.90
37086;DHT22;23001;45.952;12.676;2023-06-14T06:33:12;21.60;99.90
37086;DHT22;23001;45.952;12.676;2023-06-14T06:35:38;21.90;99.90
37086;DHT22;23001;45.952;12.676;2023-06-14T06:38:07;22.10;99.90
37086;DHT22;23001;45.952;12.676;2023-06-14T06:40:34;22.90;99.90
37086;DHT22;23001;45.952;12.676;2023-06-14T06:43:01;22.50;99.90
37086;DHT22;23001;45.952;12.676;2023-06-14T06:45:35;22.20;99.90
37086;DHT22;23001;45.952;12.676;2023-06-14T06:48:01;22.10;99.90
37086;DHT22;23001;45.952;12.676;2023-06-14T06:50:27;22.20;99.90
37086;DHT22;23001;45.952;12.676;2023-06-14T06:52:58;22.40;99.90
37086;DHT22;23001;45.952;12.676;2023-06-14T06:58:44;22.70;99.90
37086;DHT22;23001;45.952;12.676;2023-06-14T07:01:13;22.60;99.90
37086;DHT22;23001;45.952;12.676;2023-06-14T07:03:41;22.60;99.90
37086;DHT22;23001;45.952;12.676;2023-06-14T07:06:22;22.70;99.90
37086;DHT22;23001;45.952;12.676;2023-06-14T07:08:54;22.80;99.90
37086;DHT22;23001;45.952;12.676;2023-06-14T07:11:26;22.90;99.90
37086;DHT22;23001;45.952;12.676;2023-06-14T07:13:54;22.80;99.90
37086;DHT22;23001;45.952;12.676;2023-06-14T07:16:29;22.70;99.90
37086;DHT22;23001;45.952;12.676;2023-06-14T07:19:20;22.70;99.90
37086;DHT22;23001;45.952;12.676;2023-06-14T07:21:50;22.70;99.90
37086;DHT22;23001;45.952;12.676;2023-06-14T07:24:16;23.30;99.90
37086;DHT22;23001;45.952;12.676;2023-06-14T07:26:45;23.50;99.90
37086;DHT22;23001;45.952;12.676;2023-06-14T07:29:11;23.40;99.90
37086;DHT22;23001;45.952;12.676;2023-06-14T07:31:36;23.70;99.90
37086;DHT22;23001;45.952;12.676;2023-06-14T07:34:02;23.60;99.90
37086;DHT22;23001;45.952;12.676;2023-06-14T07:36:28;23.90;99.90
37086;DHT22;23001;45.952;12.676;2023-06-14T07:38:53;24.20;99.90
37086;DHT22;23001;45.952;12.676;2023-06-14T07:41:19;24.60;99.90
37086;DHT22;23001;45.952;12.676;2023-06-14T07:43:45;24.50;99.90
37086;DHT22;23001;45.952;12.676;2023-06-14T07:46:10;23.90;99.90
37086;DHT22;23001;45.952;12.676;2023-06-14T07:48:36;23.50;99.90
37086;DHT22;23001;45.952;12.676;2023-06-14T07:51:02;23.20;99.90
37086;DHT22;23001;45.952;12.676;2023-06-14T07:53:36;23.20;99.90
37086;DHT22;23001;45.952;12.676;2023-06-14T07:56:02;23.10;99.90
37086;DHT22;23001;45.952;12.676;2023-06-14T07:58:28;23.20;99.90
37086;DHT22;23001;45.952;12.676;2023-06-14T08:00:53;23.40;99.90
37086;DHT22;23001;45.952;12.676;2023-06-14T08:03:19;24.30;99.90
37086;DHT22;23001;45.952;12.676;2023-06-14T08:05:45;25.00;99.90
37086;DHT22;23001;45.952;12.676;2023-06-14T08:08:10;25.20;99.90
37086;DHT22;23001;45.952;12.676;2023-06-14T08:10:36;25.60;99.90
37086;DHT22;23001;45.952;12.676;2023-06-14T08:13:01;25.50;99.00
37086;DHT22;23001;45.952;12.676;2023-06-14T08:15:27;25.30;99.10
37086;DHT22;23001;45.952;12.676;2023-06-14T08:17:52;25.60;98.20
37086;DHT22;23001;45.952;12.676;2023-06-14T08:20:18;25.70;99.10
37086;DHT22;23001;45.952;12.676;2023-06-14T08:22:44;25.40;98.20
37086;DHT22;23001;45.952;12.676;2023-06-14T08:25:11;25.30;99.10
37086;DHT22;23001;45.952;12.676;2023-06-14T08:27:37;25.10;99.00
37086;DHT22;23001;45.952;12.676;2023-06-14T08:30:03;25.40;98.90
37086;DHT22;23001;45.952;12.676;2023-06-14T08:32:29;25.40;97.60
37086;DHT22;23001;45.952;12.676;2023-06-14T08:34:54;25.40;98.40
37086;DHT22;23001;45.952;12.676;2023-06-14T08:37:20;25.40;97.50
37086;DHT22;23001;45.952;12.676;2023-06-14T08:39:46;25.40;97.60
37086;DHT22;23001;45.952;12.676;2023-06-14T08:42:12;25.50;96.80
37086;DHT22;23001;45.952;12.676;2023-06-14T08:44:37;25.50;96.60
37086;DHT22;23001;45.952;12.676;2023-06-14T08:47:07;25.50;98.10
37086;DHT22;23001;45.952;12.676;2023-06-14T08:49:39;25.30;98.30
37086;DHT22;23001;45.952;12.676;2023-06-14T08:52:06;25.70;97.40
37086;DHT22;23001;45.952;12.676;2023-06-14T08:54:33;25.50;96.50
37086;DHT22;23001;45.952;12.676;2023-06-14T08:57:01;25.30;96.60
37086;DHT22;23001;45.952;12.676;2023-06-14T08:59:28;25.20;97.10
37086;DHT22;23001;45.952;12.676;2023-06-14T09:01:53;25.30;95.70
37086;DHT22;23001;45.952;12.676;2023-06-14T09:04:25;25.20;95.40
37086;DHT22;23001;45.952;12.676;2023-06-14T09:06:55;25.40;95.80
37086;DHT22;23001;45.952;12.676;2023-06-14T09:09:21;25.70;95.50
37086;DHT22;23001;45.952;12.676;2023-06-14T09:11:49;25.80;95.40
37086;DHT22;23001;45.952;12.676;2023-06-14T09:14:15;26.20;94.90
37086;DHT22;23001;45.952;12.676;2023-06-14T09:16:41;26.10;95.00
37086;DHT22;23001;45.952;12.676;2023-06-14T09:19:06;25.90;96.10
37086;DHT22;23001;45.952;12.676;2023-06-14T09:21:35;25.70;97.10
37086;DHT22;23001;45.952;12.676;2023-06-14T09:24:02;25.80;96.10
37086;DHT22;23001;45.952;12.676;2023-06-14T09:26:29;26.10;95.60
37086;DHT22;23001;45.952;12.676;2023-06-14T09:28:55;26.10;96.80
37086;DHT22;23001;45.952;12.676;2023-06-14T09:31:21;25.70;95.50
37086;DHT22;23001;45.952;12.676;2023-06-14T09:33:48;25.70;96.70
37086;DHT22;23001;45.952;12.676;2023-06-14T09:36:17;25.60;96.30
37086;DHT22;23001;45.952;12.676;2023-06-14T09:38:56;25.60;96.00
37086;DHT22;23001;45.952;12.676;2023-06-14T09:41:32;25.70;96.30
37086;DHT22;23001;45.952;12.676;2023-06-14T09:43:58;25.70;96.70
37086;DHT22;23001;45.952;12.676;2023-06-14T09:46:29;25.60;95.10
37086;DHT22;23001;45.952;12.676;2023-06-14T09:48:55;25.90;95.50
37086;DHT22;23001;45.952;12.676;2023-06-14T09:51:22;26.20;95.90
37086;DHT22;23001;45.952;12.676;2023-06-14T09:53:48;26.60;95.10
37086;DHT22;23001;45.952;12.676;2023-06-14T09:56:16;26.80;94.50
37086;DHT22;23001;45.952;12.676;2023-06-14T09:58:44;26.90;95.90
37086;DHT22;23001;45.952;12.676;2023-06-14T10:01:10;26.80;97.40
37086;DHT22;23001;45.952;12.676;2023-06-14T10:06:28;26.80;96.00
37086;DHT22;23001;45.952;12.676;2023-06-14T10:08:58;26.70;97.10
37086;DHT22;23001;45.952;12.676;2023-06-14T10:11:27;26.70;95.30
37086;DHT22;23001;45.952;12.676;2023-06-14T10:13:53;26.80;95.00
37086;DHT22;23001;45.952;12.676;2023-06-14T10:18:59;26.60;95.60
37086;DHT22;23001;45.952;12.676;2023-06-14T10:21:28;26.40;97.00
37086;DHT22;23001;45.952;12.676;2023-06-14T10:23:57;26.20;95.80
37086;DHT22;23001;45.952;12.676;2023-06-14T10:26:25;26.20;96.00
37086;DHT22;23001;45.952;12.676;2023-06-14T10:29:01;26.20;96.60
37086;DHT22;23001;45.952;12.676;2023-06-14T10:31:44;26.40;95.80
37086;DHT22;23001;45.952;12.676;2023-06-14T10:34:13;26.60;96.20
37086;DHT22;23001;45.952;12.676;2023-06-14T10:36:46;26.60;96.30
37086;DHT22;23001;45.952;12.676;2023-06-14T10:39:15;26.50;95.80
37086;DHT22;23001;45.952;12.676;2023-06-14T10:41:41;27.10;96.90
37086;DHT22;23001;45.952;12.676;2023-06-14T10:46:53;26.50;96.00
37086;DHT22;23001;45.952;12.676;2023-06-14T10:49:19;26.30;95.20
37086;DHT22;23001;45.952;12.676;2023-06-14T10:51:51;26.10;95.60
37086;DHT22;23001;45.952;12.676;2023-06-14T10:54:22;26.10;96.10
37086;DHT22;23001;45.952;12.676;2023-06-14T10:56:49;26.10;95.50
37086;DHT22;23001;45.952;12.676;2023-06-14T10:59:16;26.20;95.60
37086;DHT22;23001;45.952;12.676;2023-06-14T11:01:58;26.00;95.50
37086;DHT22;23001;45.952;12.676;2023-06-14T11:04:30;26.00;95.70
37086;DHT22;23001;45.952;12.676;2023-06-14T11:07:10;26.20;96.10
37086;DHT22;23001;45.952;12.676;2023-06-14T11:09:45;26.30;95.80
37086;DHT22;23001;45.952;12.676;2023-06-14T11:12:15;26.40;96.30
37086;DHT22;23001;45.952;12.676;2023-06-14T11:14:42;26.30;97.20
37086;DHT22;23001;45.952;12.676;2023-06-14T11:17:11;26.30;96.40
37086;DHT22;23001;45.952;12.676;2023-06-14T11:19:37;26.50;94.90
37086;DHT22;23001;45.952;12.676;2023-06-14T11:22:03;26.60;96.40
37086;DHT22;23001;45.952;12.676;2023-06-14T11:24:28;26.70;95.80
37086;DHT22;23001;45.952;12.676;2023-06-14T11:26:54;26.70;96.90
37086;DHT22;23001;45.952;12.676;2023-06-14T11:29:22;26.80;94.50
37086;DHT22;23001;45.952;12.676;2023-06-14T11:31:51;26.90;95.00
37086;DHT22;23001;45.952;12.676;2023-06-14T11:34:16;27.00;93.30
37086;DHT22;23001;45.952;12.676;2023-06-14T11:36:48;26.90;93.80
37086;DHT22;23001;45.952;12.676;2023-06-14T11:39:14;26.80;93.50
37086;DHT22;23001;45.952;12.676;2023-06-14T11:41:43;26.90;94.20
37086;DHT22;23001;45.952;12.676;2023-06-14T11:44:12;26.90;93.50
37086;DHT22;23001;45.952;12.676;2023-06-14T11:46:38;27.00;94.40
37086;DHT22;23001;45.952;12.676;2023-06-14T11:49:03;27.00;94.20
37086;DHT22;23001;45.952;12.676;2023-06-14T11:51:33;26.80;94.80
37086;DHT22;23001;45.952;12.676;2023-06-14T11:53:59;26.70;94.90
37086;DHT22;23001;45.952;12.676;2023-06-14T11:56:25;26.70;94.80
37086;DHT22;23001;45.952;12.676;2023-06-14T11:58:52;26.70;93.60
37086;DHT22;23001;45.952;12.676;2023-06-14T12:01:18;26.80;93.50
37086;DHT22;23001;45.952;12.676;2023-06-14T12:03:47;26.60;93.60
37086;DHT22;23001;45.952;12.676;2023-06-14T12:06:13;26.70;93.30
37086;DHT22;23001;45.952;12.676;2023-06-14T12:08:40;26.70;94.20
37086;DHT22;23001;45.952;12.676;2023-06-14T12:11:11;26.90;94.90
37086;DHT22;23001;45.952;12.676;2023-06-14T12:13:37;27.00;93.50
37086;DHT22;23001;45.952;12.676;2023-06-14T12:16:03;27.20;95.40
37086;DHT22;23001;45.952;12.676;2023-06-14T12:18:35;27.00;93.20
37086;DHT22;23001;45.952;12.676;2023-06-14T12:21:01;26.90;93.70
37086;DHT22;23001;45.952;12.676;2023-06-14T12:23:38;26.90;94.50
37086;DHT22;23001;45.952;12.676;2023-06-14T12:26:03;27.00;93.80
37086;DHT22;23001;45.952;12.676;2023-06-14T12:28:31;26.90;93.50
37086;DHT22;23001;45.952;12.676;2023-06-14T12:30:56;27.20;94.50
37086;DHT22;23001;45.952;12.676;2023-06-14T12:33:24;27.40;93.30
37086;DHT22;23001;45.952;12.676;2023-06-14T12:35:53;27.30;93.90
37086;DHT22;23001;45.952;12.676;2023-06-14T12:38:20;27.40;93.70
37086;DHT22;23001;45.952;12.676;2023-06-14T12:40:46;27.30;94.00
37086;DHT22;23001;45.952;12.676;2023-06-14T12:43:12;27.20;94.00
37086;DHT22;23001;45.952;12.676;2023-06-14T12:45:38;27.10;94.10
37086;DHT22;23001;45.952;12.676;2023-06-14T12:48:03;27.10;93.40
37086;DHT22;23001;45.952;12.676;2023-06-14T12:50:29;26.90;93.50
37086;DHT22;23001;45.952;12.676;2023-06-14T12:52:55;27.00;93.60
37086;DHT22;23001;45.952;12.676;2023-06-14T12:55:21;26.90;95.10
37086;DHT22;23001;45.952;12.676;2023-06-14T12:57:46;26.90;93.90
37086;DHT22;23001;45.952;12.676;2023-06-14T13:00:15;27.00;93.50
37086;DHT22;23001;45.952;12.676;2023-06-14T13:02:40;26.80;94.80
37086;DHT22;23001;45.952;12.676;2023-06-14T13:05:06;27.00;95.30
37086;DHT22;23001;45.952;12.676;2023-06-14T13:07:32;26.90;92.90
37086;DHT22;23001;45.952;12.676;2023-06-14T13:09:58;27.00;93.80
37086;DHT22;23001;45.952;12.676;2023-06-14T13:12:23;27.30;92.80
37086;DHT22;23001;45.952;12.676;2023-06-14T13:14:49;27.10;93.80
37086;DHT22;23001;45.952;12.676;2023-06-14T13:17:15;27.10;93.30
37086;DHT22;23001;45.952;12.676;2023-06-14T13:19:40;27.00;94.50
37086;DHT22;23001;45.952;12.676;2023-06-14T13:22:07;26.90;93.60
37086;DHT22;23001;45.952;12.676;2023-06-14T13:24:34;26.90;93.80
37086;DHT22;23001;45.952;12.676;2023-06-14T13:26:59;26.90;94.90
37086;DHT22;23001;45.952;12.676;2023-06-14T13:29:25;26.80;93.40
37086;DHT22;23001;45.952;12.676;2023-06-14T13:31:52;26.90;93.80
37086;DHT22;23001;45.952;12.676;2023-06-14T13:34:18;27.00;94.90
37086;DHT22;23001;45.952;12.676;2023-06-14T13:36:43;27.00;93.60
37086;DHT22;23001;45.952;12.676;2023-06-14T13:39:09;27.00;95.00
37086;DHT22;23001;45.952;12.676;2023-06-14T13:41:36;27.10;94.30
37086;DHT22;23001;45.952;12.676;2023-06-14T13:44:02;27.10;95.30
37086;DHT22;23001;45.952;12.676;2023-06-14T13:46:29;27.10;95.10
37086;DHT22;23001;45.952;12.676;2023-06-14T13:48:55;27.10;94.20
37086;DHT22;23001;45.952;12.676;2023-06-14T13:51:20;27.00;95.00
37086;DHT22;23001;45.952;12.676;2023-06-14T13:53:47;26.90;95.20
37086;DHT22;23001;45.952;12.676;2023-06-14T13:56:12;26.90;94.40
37086;DHT22;23001;45.952;12.676;2023-06-14T13:58:38;27.00;95.50
37086;DHT22;23001;45.952;12.676;2023-06-14T14:01:04;26.90;94.70
37086;DHT22;23001;45.952;12.676;2023-06-14T14:03:30;26.90;96.00
37086;DHT22;23001;45.952;12.676;2023-06-14T14:05:56;27.00;94.30
37086;DHT22;23001;45.952;12.676;2023-06-14T14:08:21;27.00;94.90
37086;DHT22;23001;45.952;12.676;2023-06-14T14:10:47;27.10;93.60
37086;DHT22;23001;45.952;12.676;2023-06-14T14:13:12;27.00;94.60
37086;DHT22;23001;45.952;12.676;2023-06-14T14:15:38;27.20;94.90
37086;DHT22;23001;45.952;12.676;2023-06-14T14:18:04;27.10;93.70
37086;DHT22;23001;45.952;12.676;2023-06-14T14:20:30;27.00;93.80
37086;DHT22;23001;45.952;12.676;2023-06-14T14:22:56;26.90;93.40
37086;DHT22;23001;45.952;12.676;2023-06-14T14:25:22;26.70;94.70
37086;DHT22;23001;45.952;12.676;2023-06-14T14:27:47;26.80;95.20
37086;DHT22;23001;45.952;12.676;2023-06-14T14:30:13;26.80;93.40
37086;DHT22;23001;45.952;12.676;2023-06-14T14:32:39;26.90;93.60
37086;DHT22;23001;45.952;12.676;2023-06-14T14:35:06;27.10;95.70
37086;DHT22;23001;45.952;12.676;2023-06-14T14:37:32;27.00;95.30
37086;DHT22;23001;45.952;12.676;2023-06-14T14:39:57;27.00;95.30
37086;DHT22;23001;45.952;12.676;2023-06-14T14:42:23;27.00;94.90
37086;DHT22;23001;45.952;12.676;2023-06-14T14:44:48;27.00;94.50
37086;DHT22;23001;45.952;12.676;2023-06-14T14:47:14;27.10;94.40
37086;DHT22;23001;45.952;12.676;2023-06-14T14:49:39;27.10;95.90
37086;DHT22;23001;45.952;12.676;2023-06-14T14:52:05;27.10;96.00
37086;DHT22;23001;45.952;12.676;2023-06-14T14:54:31;27.10;94.30
37086;DHT22;23001;45.952;12.676;2023-06-14T14:56:56;27.20;93.70
37086;DHT22;23001;45.952;12.676;2023-06-14T14:59:22;27.00;95.50
37086;DHT22;23001;45.952;12.676;2023-06-14T15:01:47;27.00;94.20
37086;DHT22;23001;45.952;12.676;2023-06-14T15:04:13;27.00;94.60
37086;DHT22;23001;45.952;12.676;2023-06-14T15:06:39;27.00;94.00
37086;DHT22;23001;45.952;12.676;2023-06-14T15:09:07;27.30;94.10
37086;DHT22;23001;45.952;12.676;2023-06-14T15:11:33;27.20;94.50
37086;DHT22;23001;45.952;12.676;2023-06-14T15:13:58;27.40;93.70
37086;DHT22;23001;45.952;12.676;2023-06-14T15:16:24;27.50;94.60
37086;DHT22;23001;45.952;12.676;2023-06-14T15:18:49;27.40;93.30
37086;DHT22;23001;45.952;12.676;2023-06-14T15:21:15;27.50;93.20
37086;DHT22;23001;45.952;12.676;2023-06-14T15:23:41;27.60;93.70
37086;DHT22;23001;45.952;12.676;2023-06-14T15:26:06;27.50;93.70
37086;DHT22;23001;45.952;12.676;2023-06-14T15:28:39;27.40;94.40
37086;DHT22;23001;45.952;12.676;2023-06-14T15:31:05;27.10;94.30
37086;DHT22;23001;45.952;12.676;2023-06-14T15:33:31;27.00;94.30
37086;DHT22;23001;45.952;12.676;2023-06-14T15:35:59;27.00;94.30
37086;DHT22;23001;45.952;12.676;2023-06-14T15:38:25;27.10;93.60
37086;DHT22;23001;45.952;12.676;2023-06-14T15:40:50;27.30;94.10
37086;DHT22;23001;45.952;12.676;2023-06-14T15:43:16;27.50;93.00
37086;DHT22;23001;45.952;12.676;2023-06-14T15:45:41;27.40;93.30
37086;DHT22;23001;45.952;12.676;2023-06-14T15:48:09;27.20;93.70
37086;DHT22;23001;45.952;12.676;2023-06-14T15:50:36;27.30;93.60
37086;DHT22;23001;45.952;12.676;2023-06-14T15:53:02;27.30;93.20
37086;DHT22;23001;45.952;12.676;2023-06-14T15:55:28;27.40;94.40
37086;DHT22;23001;45.952;12.676;2023-06-14T15:57:53;27.50;92.70
37086;DHT22;23001;45.952;12.676;2023-06-14T16:00:19;27.50;92.30
37086;DHT22;23001;45.952;12.676;2023-06-14T16:02:46;27.50;93.50
37086;DHT22;23001;45.952;12.676;2023-06-14T16:05:11;27.30;93.30
37086;DHT22;23001;45.952;12.676;2023-06-14T16:07:37;27.50;93.30
37086;DHT22;23001;45.952;12.676;2023-06-14T16:10:03;27.30;92.90
37086;DHT22;23001;45.952;12.676;2023-06-14T16:12:28;27.00;92.30
37086;DHT22;23001;45.952;12.676;2023-06-14T16:14:54;27.00;92.70
37086;DHT22;23001;45.952;12.676;2023-06-14T16:17:20;26.90;93.90
37086;DHT22;23001;45.952;12.676;2023-06-14T16:19:45;26.90;93.30